createdAt,value
2022-12-08T00:01:32.446Z,1.10
2022-12-08T00:04:01.289Z,1.27
2022-12-08T00:06:50.203Z,1.83
2022-12-08T00:09:23.132Z,1.20
2022-12-08T00:11:53.356Z,1.00
2022-12-08T00:14:23.548Z,1.30
2022-12-08T00:16:51.547Z,1.20
2022-12-08T00:19:19.649Z,1.43
2022-12-08T00:21:48.944Z,1.23
2022-12-08T00:24:17.745Z,1.03
2022-12-08T00:26:45.880Z,0.90
2022-12-08T00:29:17.497Z,0.83
2022-12-08T00:31:45.814Z,0.73
2022-12-08T00:34:14.040Z,0.87
2022-12-08T00:36:42.153Z,1.10
2022-12-08T00:39:12.125Z,1.20
2022-12-08T00:41:57.669Z,0.70
2022-12-08T00:44:25.837Z,1.10
2022-12-08T00:46:53.674Z,0.97
2022-12-08T00:49:21.934Z,0.93
2022-12-08T00:51:50.163Z,1.00
2022-12-08T00:54:20.231Z,0.80
2022-12-08T00:56:48.196Z,1.03
2022-12-08T00:59:16.352Z,1.03
2022-12-08T01:01:45.986Z,1.10
2022-12-08T01:04:16.238Z,0.87
2022-12-08T01:06:45.360Z,0.87
2022-12-08T01:09:14.589Z,0.80
2022-12-08T01:11:44.611Z,1.00
2022-12-08T01:14:13.253Z,0.73
2022-12-08T01:16:42.200Z,0.70
2022-12-08T01:19:11.835Z,0.93
2022-12-08T01:21:40.445Z,0.83
2022-12-08T01:24:11.525Z,1.00
2022-12-08T01:26:39.711Z,0.90
2022-12-08T01:29:09.258Z,1.20
2022-12-08T01:31:37.300Z,0.90
2022-12-08T01:34:05.304Z,1.00
2022-12-08T01:36:37.097Z,1.00
2022-12-08T01:39:07.216Z,0.77
2022-12-08T01:41:37.605Z,0.67
2022-12-08T01:44:43.982Z,0.87
2022-12-08T01:47:13.531Z,0.83
2022-12-08T01:49:41.321Z,0.70
2022-12-08T01:52:17.843Z,0.83
2022-12-08T01:54:49.883Z,0.57
2022-12-08T01:57:21.512Z,0.87
2022-12-08T01:59:53.100Z,0.60
2022-12-08T02:02:22.787Z,0.87
2022-12-08T02:04:50.827Z,0.70
2022-12-08T02:07:19.692Z,0.67
2022-12-08T02:09:47.912Z,0.90
2022-12-08T02:12:16.092Z,0.67
2022-12-08T02:14:44.244Z,0.93
2022-12-08T02:17:30.540Z,0.63
2022-12-08T02:20:35.561Z,0.50
2022-12-08T02:23:12.467Z,0.70
2022-12-08T02:25:52.161Z,0.63
2022-12-08T02:28:43.690Z,0.70
2022-12-08T02:31:28.114Z,0.70
2022-12-08T02:34:18.680Z,1.00
2022-12-08T02:36:55.387Z,0.97
2022-12-08T02:39:32.313Z,0.90
2022-12-08T02:42:09.588Z,0.93
2022-12-08T02:44:43.145Z,0.70
2022-12-08T02:47:14.010Z,0.80
2022-12-08T02:49:43.389Z,0.60
2022-12-08T02:52:40.235Z,0.57
2022-12-08T02:55:14.581Z,0.60
2022-12-08T02:57:52.970Z,0.87
2022-12-08T03:00:23.479Z,0.53
2022-12-08T03:03:04.879Z,0.60
2022-12-08T03:05:52.328Z,0.87
2022-12-08T03:08:25.790Z,0.70
2022-12-08T03:11:01.968Z,0.60
2022-12-08T03:13:35.096Z,0.80
2022-12-08T03:16:08.645Z,0.80
2022-12-08T03:18:43.053Z,0.70
2022-12-08T03:21:17.596Z,0.63
2022-12-08T03:23:47.616Z,1.00
2022-12-08T03:26:21.817Z,1.00
2022-12-08T03:28:49.829Z,0.90
2022-12-08T03:31:19.630Z,0.70
2022-12-08T03:33:53.305Z,0.73
2022-12-08T03:36:23.632Z,0.97
2022-12-08T03:38:53.846Z,0.67
2022-12-08T03:41:23.237Z,0.90
2022-12-08T03:43:52.926Z,0.60
2022-12-08T03:48:49.447Z,0.60
2022-12-08T03:51:17.551Z,0.60
2022-12-08T03:53:47.303Z,0.50
2022-12-08T03:56:20.972Z,0.77
2022-12-08T03:58:48.764Z,0.80
2022-12-08T04:01:16.673Z,0.80
2022-12-08T04:03:44.709Z,0.50
2022-12-08T04:06:12.660Z,0.60
2022-12-08T04:08:41.195Z,0.70
2022-12-08T04:11:10.693Z,0.70
2022-12-08T04:13:39.984Z,0.83
2022-12-08T04:16:08.330Z,0.60
2022-12-08T04:18:37.007Z,1.23
2022-12-08T04:21:05.009Z,0.90
2022-12-08T04:23:32.899Z,0.70
2022-12-08T04:26:00.871Z,0.77
2022-12-08T04:28:30.496Z,0.70
2022-12-08T04:30:58.653Z,0.50
2022-12-08T04:33:26.724Z,0.60
2022-12-08T04:35:54.545Z,0.70
2022-12-08T04:38:22.795Z,0.67
2022-12-08T04:40:50.770Z,0.70
2022-12-08T04:43:18.729Z,0.53
2022-12-08T04:45:48.369Z,0.60
2022-12-08T04:48:16.695Z,0.70
2022-12-08T04:50:46.002Z,0.63
2022-12-08T04:53:14.675Z,0.70
2022-12-08T04:55:44.973Z,0.50
2022-12-08T04:58:14.807Z,0.80
2022-12-08T05:00:43.540Z,0.60
2022-12-08T05:03:13.110Z,0.60
2022-12-08T05:05:41.978Z,0.80
2022-12-08T05:08:10.551Z,0.80
2022-12-08T05:10:38.875Z,0.70
2022-12-08T05:13:06.673Z,0.77
2022-12-08T05:15:34.616Z,0.73
2022-12-08T05:18:02.542Z,0.50
2022-12-08T05:20:31.729Z,0.70
2022-12-08T05:22:59.688Z,0.90
2022-12-08T05:25:27.802Z,0.60
2022-12-08T05:28:17.714Z,0.60
2022-12-08T05:30:43.629Z,0.70
2022-12-08T05:33:11.419Z,0.70
2022-12-08T05:35:40.828Z,0.60
2022-12-08T05:38:08.916Z,0.50
2022-12-08T05:40:38.633Z,0.67
2022-12-08T05:43:06.716Z,0.90
2022-12-08T05:45:35.042Z,0.50
2022-12-08T05:48:03.017Z,0.70
2022-12-08T05:50:30.903Z,0.70
2022-12-08T05:53:00.306Z,0.77
2022-12-08T05:55:28.155Z,0.80
2022-12-08T05:57:55.958Z,0.70
2022-12-08T06:00:24.105Z,0.60
2022-12-08T06:02:52.029Z,1.00
2022-12-08T06:05:20.154Z,0.93
2022-12-08T06:07:48.265Z,1.10
2022-12-08T06:10:17.507Z,0.97
2022-12-08T06:12:45.375Z,1.03
2022-12-08T06:15:13.400Z,0.80
2022-12-08T06:17:41.206Z,1.30
2022-12-08T06:20:09.903Z,1.13
2022-12-08T06:22:38.459Z,0.73
2022-12-08T06:25:10.094Z,1.13
2022-12-08T06:27:40.035Z,0.87
2022-12-08T06:30:09.114Z,1.00
2022-12-08T06:32:37.517Z,1.03
2022-12-08T06:35:06.289Z,0.90
2022-12-08T06:37:34.136Z,0.90
2022-12-08T06:40:02.248Z,1.10
2022-12-08T06:42:46.769Z,1.13
2022-12-08T06:45:18.102Z,1.10
2022-12-08T06:47:46.481Z,1.00
2022-12-08T06:50:15.338Z,0.90
2022-12-08T06:52:54.344Z,0.90
2022-12-08T06:55:59.462Z,1.20
2022-12-08T06:58:17.018Z,1.00
2022-12-08T07:00:46.797Z,0.70
2022-12-08T07:03:14.866Z,0.77
2022-12-08T07:05:42.714Z,0.90
2022-12-08T07:08:13.626Z,1.00
2022-12-08T07:10:41.952Z,0.93
2022-12-08T07:13:09.797Z,0.90
2022-12-08T07:15:38.022Z,1.00
2022-12-08T07:18:07.271Z,0.90
2022-12-08T07:20:35.107Z,0.90
2022-12-08T07:23:03.234Z,0.80
2022-12-08T07:25:31.072Z,1.23
2022-12-08T07:27:58.994Z,1.20
2022-12-08T07:30:27.087Z,1.03
2022-12-08T07:32:57.288Z,1.43
2022-12-08T07:35:26.764Z,1.20
2022-12-08T07:37:54.745Z,1.40
2022-12-08T07:40:22.585Z,1.50
2022-12-08T07:42:50.375Z,1.30
2022-12-08T07:45:18.681Z,1.07
2022-12-08T07:47:48.035Z,1.40
2022-12-08T07:50:15.975Z,1.40
2022-12-08T07:52:45.431Z,1.30
2022-12-08T07:55:13.228Z,1.07
2022-12-08T07:57:41.032Z,1.67
2022-12-08T08:00:10.122Z,1.30
2022-12-08T08:02:38.114Z,1.57
2022-12-08T08:05:07.140Z,1.40
2022-12-08T08:07:37.007Z,1.87
2022-12-08T08:10:08.239Z,1.73
2022-12-08T08:12:36.707Z,1.40
2022-12-08T08:15:07.568Z,1.50
2022-12-08T08:17:36.696Z,1.53
2022-12-08T08:20:07.220Z,1.30
2022-12-08T08:22:36.333Z,1.40
2022-12-08T08:25:04.572Z,1.43
2022-12-08T08:27:33.932Z,1.63
2022-12-08T08:30:02.625Z,1.70
2022-12-08T08:32:35.604Z,1.57
2022-12-08T08:35:03.776Z,1.63
2022-12-08T08:37:31.903Z,1.57
2022-12-08T08:39:59.882Z,1.60
2022-12-08T08:42:27.856Z,1.40
2022-12-08T08:44:57.100Z,1.77
2022-12-08T08:47:25.063Z,0.90
2022-12-08T08:49:53.296Z,1.67
2022-12-08T08:52:21.186Z,1.60
2022-12-08T08:54:49.013Z,1.70
2022-12-08T08:57:23.670Z,1.60
2022-12-08T08:59:53.408Z,1.40
2022-12-08T09:02:23.348Z,1.30
2022-12-08T09:04:51.841Z,1.20
2022-12-08T09:07:19.831Z,1.10
2022-12-08T09:09:47.784Z,1.30
2022-12-08T09:12:15.626Z,1.70
2022-12-08T09:14:43.572Z,1.50
2022-12-08T09:17:11.514Z,1.20
2022-12-08T09:19:40.715Z,1.37
2022-12-08T09:22:11.294Z,1.53
2022-12-08T09:24:39.233Z,1.60
2022-12-08T09:27:07.040Z,1.53
2022-12-08T09:29:36.341Z,1.60
2022-12-08T09:32:04.736Z,1.93
2022-12-08T09:34:32.717Z,1.50
2022-12-08T09:37:02.104Z,1.70
2022-12-08T09:39:29.995Z,1.97
2022-12-08T09:42:00.806Z,1.87
2022-12-08T09:44:57.481Z,1.83
2022-12-08T09:47:35.287Z,1.87
2022-12-08T09:50:08.883Z,1.90
2022-12-08T09:52:42.625Z,1.40
2022-12-08T09:55:18.588Z,1.77
2022-12-08T09:58:01.841Z,1.87
2022-12-08T10:00:30.116Z,1.57
2022-12-08T10:02:58.121Z,1.60
2022-12-08T10:05:28.573Z,1.83
2022-12-08T10:08:09.617Z,1.77
2022-12-08T10:10:42.932Z,2.13
2022-12-08T10:13:20.515Z,1.80
2022-12-08T10:15:54.545Z,2.17
2022-12-08T10:18:28.314Z,2.43
2022-12-08T10:21:01.192Z,2.27
2022-12-08T10:23:36.027Z,2.10
2022-12-08T10:26:06.646Z,2.13
2022-12-08T10:28:39.957Z,1.90
2022-12-08T10:31:17.436Z,2.20
2022-12-08T10:33:47.491Z,2.23
2022-12-08T10:36:15.600Z,1.83
2022-12-08T10:38:44.855Z,1.40
2022-12-08T10:41:18.089Z,2.00
2022-12-08T10:43:49.538Z,1.43
2022-12-08T10:46:19.982Z,1.37
2022-12-08T10:48:54.125Z,0.70
2022-12-08T10:51:29.634Z,1.00
2022-12-08T10:53:59.447Z,1.43
2022-12-08T10:56:29.463Z,1.20
2022-12-08T10:59:14.185Z,1.40
2022-12-08T11:01:43.977Z,1.27
2022-12-08T11:04:16.863Z,1.40
2022-12-08T11:06:45.775Z,1.67
2022-12-08T11:09:46.877Z,1.07
2022-12-08T11:12:16.062Z,1.07
2022-12-08T11:14:56.166Z,1.50
2022-12-08T11:17:27.700Z,1.33
2022-12-08T11:20:00.465Z,1.67
2022-12-08T11:22:32.202Z,1.63
2022-12-08T11:25:04.123Z,2.30
2022-12-08T11:27:34.710Z,1.50
2022-12-08T11:30:04.665Z,1.70
2022-12-08T11:32:35.801Z,1.30
2022-12-08T11:35:06.955Z,1.37
2022-12-08T11:37:40.192Z,1.70
2022-12-08T11:40:17.649Z,1.50
2022-12-08T11:42:55.976Z,2.00
2022-12-08T11:45:28.429Z,1.87
2022-12-08T11:48:05.091Z,1.83
2022-12-08T11:50:42.288Z,1.30
2022-12-08T11:53:18.095Z,2.17
2022-12-08T11:55:53.732Z,1.97
2022-12-08T11:58:28.443Z,2.00
2022-12-08T12:00:56.628Z,1.90
2022-12-08T12:03:30.572Z,2.57
2022-12-08T12:09:17.682Z,2.43
2022-12-08T12:12:16.034Z,2.03
2022-12-08T12:15:20.309Z,2.03
2022-12-08T12:17:52.260Z,1.97
